sensor_id;sensor_type;location;lat;lon;timestamp;temperature;humidity
2577;DHT22;1298;51.252;6.802;2023-02-28T00:02:29;0.70;99.90
2577;DHT22;1298;51.252;6.802;2023-02-28T00:05:15;0.70;99.90
2577;DHT22;1298;51.252;6.802;2023-02-28T00:08:00;0.80;99.90
2577;DHT22;1298;51.252;6.802;2023-02-28T00:10:45;0.70;99.90
2577;DHT22;1298;51.252;6.802;2023-02-28T00:13:32;0.70;99.90
2577;DHT22;1298;51.252;6.802;2023-02-28T00:16:20;0.60;99.90
2577;DHT22;1298;51.252;6.802;2023-02-28T00:19:06;0.50;99.90
2577;DHT22;1298;51.252;6.802;2023-02-28T00:21:51;0.50;99.90
2577;DHT22;1298;51.252;6.802;2023-02-28T00:24:36;0.50;99.90
2577;DHT22;1298;51.252;6.802;2023-02-28T00:27:22;0.60;99.90
2577;DHT22;1298;51.252;6.802;2023-02-28T00:30:10;0.60;99.90
2577;DHT22;1298;51.252;6.802;2023-02-28T00:32:55;0.60;99.90
2577;DHT22;1298;51.252;6.802;2023-02-28T00:35:40;0.70;99.90
2577;DHT22;1298;51.252;6.802;2023-02-28T00:38:25;0.70;99.90
2577;DHT22;1298;51.252;6.802;2023-02-28T00:41:10;0.70;99.90
2577;DHT22;1298;51.252;6.802;2023-02-28T00:43:55;0.70;99.90
2577;DHT22;1298;51.252;6.802;2023-02-28T00:46:42;0.70;99.90
2577;DHT22;1298;51.252;6.802;2023-02-28T00:49:27;0.70;99.90
2577;DHT22;1298;51.252;6.802;2023-02-28T00:52:12;0.80;99.90
2577;DHT22;1298;51.252;6.802;2023-02-28T00:54:58;0.80;99.90
2577;DHT22;1298;51.252;6.802;2023-02-28T00:57:43;0.80;99.90
2577;DHT22;1298;51.252;6.802;2023-02-28T01:00:28;0.80;99.90
2577;DHT22;1298;51.252;6.802;2023-02-28T01:03:14;0.80;99.90
2577;DHT22;1298;51.252;6.802;2023-02-28T01:06:00;0.80;99.90
2577;DHT22;1298;51.252;6.802;2023-02-28T01:08:45;0.70;99.90
2577;DHT22;1298;51.252;6.802;2023-02-28T01:11:31;0.60;99.90
2577;DHT22;1298;51.252;6.802;2023-02-28T01:14:17;0.60;99.90
2577;DHT22;1298;51.252;6.802;2023-02-28T01:17:02;0.50;99.90
2577;DHT22;1298;51.252;6.802;2023-02-28T01:19:49;0.50;99.90
2577;DHT22;1298;51.252;6.802;2023-02-28T01:22:34;0.50;99.90
2577;DHT22;1298;51.252;6.802;2023-02-28T01:25:20;0.50;99.90
2577;DHT22;1298;51.252;6.802;2023-02-28T01:28:05;0.40;99.90
2577;DHT22;1298;51.252;6.802;2023-02-28T01:30:51;0.30;99.90
2577;DHT22;1298;51.252;6.802;2023-02-28T01:33:36;0.20;99.90
2577;DHT22;1298;51.252;6.802;2023-02-28T01:36:23;0.10;99.90
2577;DHT22;1298;51.252;6.802;2023-02-28T01:39:09;0.00;99.90
2577;DHT22;1298;51.252;6.802;2023-02-28T01:41:54;0.00;99.90
2577;DHT22;1298;51.252;6.802;2023-02-28T01:44:58;0.00;99.90
2577;DHT22;1298;51.252;6.802;2023-02-28T01:47:43;0.00;99.90
2577;DHT22;1298;51.252;6.802;2023-02-28T01:50:31;-0.10;99.90
2577;DHT22;1298;51.252;6.802;2023-02-28T01:53:21;-0.20;99.90
2577;DHT22;1298;51.252;6.802;2023-02-28T01:56:08;-0.30;99.90
2577;DHT22;1298;51.252;6.802;2023-02-28T01:58:55;-0.30;99.90
2577;DHT22;1298;51.252;6.802;2023-02-28T02:01:40;-0.40;99.90
2577;DHT22;1298;51.252;6.802;2023-02-28T02:04:27;-0.50;99.90
2577;DHT22;1298;51.252;6.802;2023-02-28T02:07:17;-0.50;99.90
2577;DHT22;1298;51.252;6.802;2023-02-28T02:10:06;-0.50;99.90
2577;DHT22;1298;51.252;6.802;2023-02-28T02:13:05;-0.50;99.90
2577;DHT22;1298;51.252;6.802;2023-02-28T02:15:55;-0.50;99.90
2577;DHT22;1298;51.252;6.802;2023-02-28T02:18:43;-0.50;99.90
2577;DHT22;1298;51.252;6.802;2023-02-28T02:21:34;-0.60;99.90
2577;DHT22;1298;51.252;6.802;2023-02-28T02:27:37;-0.70;99.90
2577;DHT22;1298;51.252;6.802;2023-02-28T02:30:32;-0.70;99.90
2577;DHT22;1298;51.252;6.802;2023-02-28T02:33:30;-0.80;99.90
2577;DHT22;1298;51.252;6.802;2023-02-28T02:36:23;-0.80;99.90
2577;DHT22;1298;51.252;6.802;2023-02-28T02:39:10;-0.80;99.90
2577;DHT22;1298;51.252;6.802;2023-02-28T02:41:58;-0.90;99.90
2577;DHT22;1298;51.252;6.802;2023-02-28T02:44:46;-0.90;99.90
2577;DHT22;1298;51.252;6.802;2023-02-28T02:47:33;-0.90;99.90
2577;DHT22;1298;51.252;6.802;2023-02-28T02:50:20;-1.00;99.90
2577;DHT22;1298;51.252;6.802;2023-02-28T02:53:09;-1.00;99.90
2577;DHT22;1298;51.252;6.802;2023-02-28T02:55:55;-1.00;99.90
2577;DHT22;1298;51.252;6.802;2023-02-28T02:58:42;-1.00;99.90
2577;DHT22;1298;51.252;6.802;2023-02-28T03:01:28;-1.10;99.90
2577;DHT22;1298;51.252;6.802;2023-02-28T03:04:16;-1.10;99.90
2577;DHT22;1298;51.252;6.802;2023-02-28T03:07:02;-1.10;99.90
2577;DHT22;1298;51.252;6.802;2023-02-28T03:09:52;-1.00;99.90
2577;DHT22;1298;51.252;6.802;2023-02-28T03:12:40;-1.00;99.90
2577;DHT22;1298;51.252;6.802;2023-02-28T03:15:26;-1.00;99.90
2577;DHT22;1298;51.252;6.802;2023-02-28T03:18:14;-1.00;99.90
2577;DHT22;1298;51.252;6.802;2023-02-28T03:21:03;-1.00;99.90
2577;DHT22;1298;51.252;6.802;2023-02-28T03:23:52;-1.00;99.90
2577;DHT22;1298;51.252;6.802;2023-02-28T03:26:42;-1.00;99.90
2577;DHT22;1298;51.252;6.802;2023-02-28T03:29:30;-0.90;99.90
2577;DHT22;1298;51.252;6.802;2023-02-28T03:32:19;-0.90;99.90
2577;DHT22;1298;51.252;6.802;2023-02-28T03:35:07;-0.90;99.90
2577;DHT22;1298;51.252;6.802;2023-02-28T03:37:55;-0.80;99.90
2577;DHT22;1298;51.252;6.802;2023-02-28T03:40:45;-0.80;99.90
2577;DHT22;1298;51.252;6.802;2023-02-28T03:43:33;-0.80;99.90
2577;DHT22;1298;51.252;6.802;2023-02-28T03:46:21;-0.80;99.90
2577;DHT22;1298;51.252;6.802;2023-02-28T03:49:08;-0.90;99.90
2577;DHT22;1298;51.252;6.802;2023-02-28T03:51:54;-0.90;99.90
2577;DHT22;1298;51.252;6.802;2023-02-28T03:54:42;-0.90;99.90
2577;DHT22;1298;51.252;6.802;2023-02-28T03:57:31;-1.00;99.90
2577;DHT22;1298;51.252;6.802;2023-02-28T04:00:20;-1.00;99.90
2577;DHT22;1298;51.252;6.802;2023-02-28T04:03:06;-1.00;99.90
2577;DHT22;1298;51.252;6.802;2023-02-28T04:05:52;-1.00;99.90
2577;DHT22;1298;51.252;6.802;2023-02-28T04:08:37;-1.10;99.90
2577;DHT22;1298;51.252;6.802;2023-02-28T04:11:24;-1.10;99.90
2577;DHT22;1298;51.252;6.802;2023-02-28T04:14:11;-1.20;99.90
2577;DHT22;1298;51.252;6.802;2023-02-28T04:16:58;-1.20;99.90
2577;DHT22;1298;51.252;6.802;2023-02-28T04:19:43;-1.20;99.90
2577;DHT22;1298;51.252;6.802;2023-02-28T04:22:29;-1.20;99.90
2577;DHT22;1298;51.252;6.802;2023-02-28T04:25:14;-1.30;99.90
2577;DHT22;1298;51.252;6.802;2023-02-28T04:27:59;-1.30;99.90
2577;DHT22;1298;51.252;6.802;2023-02-28T04:30:44;-1.30;99.90
2577;DHT22;1298;51.252;6.802;2023-02-28T04:33:31;-1.30;99.90
2577;DHT22;1298;51.252;6.802;2023-02-28T04:36:17;-1.30;99.90
2577;DHT22;1298;51.252;6.802;2023-02-28T04:39:02;-1.30;99.90
2577;DHT22;1298;51.252;6.802;2023-02-28T04:41:48;-1.30;99.90
2577;DHT22;1298;51.252;6.802;2023-02-28T04:44:33;-1.40;99.90
2577;DHT22;1298;51.252;6.802;2023-02-28T04:47:18;-1.40;99.90
2577;DHT22;1298;51.252;6.802;2023-02-28T04:50:05;-1.20;99.90
2577;DHT22;1298;51.252;6.802;2023-02-28T04:52:50;-1.30;99.90
2577;DHT22;1298;51.252;6.802;2023-02-28T04:55:35;-1.30;99.90
2577;DHT22;1298;51.252;6.802;2023-02-28T04:58:25;-1.30;99.90
2577;DHT22;1298;51.252;6.802;2023-02-28T05:01:17;-1.30;99.90
2577;DHT22;1298;51.252;6.802;2023-02-28T05:04:03;-1.30;99.90
2577;DHT22;1298;51.252;6.802;2023-02-28T05:06:50;-1.20;99.90
2577;DHT22;1298;51.252;6.802;2023-02-28T05:09:36;-1.00;99.90
2577;DHT22;1298;51.252;6.802;2023-02-28T05:12:21;-0.90;99.90
2577;DHT22;1298;51.252;6.802;2023-02-28T05:15:06;-0.90;99.90
2577;DHT22;1298;51.252;6.802;2023-02-28T05:17:51;-1.00;99.90
2577;DHT22;1298;51.252;6.802;2023-02-28T05:20:36;-1.00;99.90
2577;DHT22;1298;51.252;6.802;2023-02-28T05:23:23;-1.00;99.90
2577;DHT22;1298;51.252;6.802;2023-02-28T05:26:08;-1.10;99.90
2577;DHT22;1298;51.252;6.802;2023-02-28T05:28:53;-1.20;99.90
2577;DHT22;1298;51.252;6.802;2023-02-28T05:31:38;-1.30;99.90
2577;DHT22;1298;51.252;6.802;2023-02-28T05:34:24;-1.30;99.90
2577;DHT22;1298;51.252;6.802;2023-02-28T05:37:10;-1.40;99.90
2577;DHT22;1298;51.252;6.802;2023-02-28T05:39:57;-1.40;99.90
2577;DHT22;1298;51.252;6.802;2023-02-28T05:42:42;-1.40;99.90
2577;DHT22;1298;51.252;6.802;2023-02-28T05:45:28;-1.40;99.90
2577;DHT22;1298;51.252;6.802;2023-02-28T05:48:13;-1.50;99.90
2577;DHT22;1298;51.252;6.802;2023-02-28T05:50:58;-1.50;99.90
2577;DHT22;1298;51.252;6.802;2023-02-28T05:53:44;-1.50;99.90
2577;DHT22;1298;51.252;6.802;2023-02-28T05:56:30;-1.60;99.90
2577;DHT22;1298;51.252;6.802;2023-02-28T05:59:18;-1.60;99.90
2577;DHT22;1298;51.252;6.802;2023-02-28T06:02:03;-1.60;99.90
2577;DHT22;1298;51.252;6.802;2023-02-28T06:04:48;-1.70;99.90
2577;DHT22;1298;51.252;6.802;2023-02-28T06:07:33;-1.70;99.90
2577;DHT22;1298;51.252;6.802;2023-02-28T06:10:18;-1.70;99.90
2577;DHT22;1298;51.252;6.802;2023-02-28T06:13:05;-1.70;99.90
2577;DHT22;1298;51.252;6.802;2023-02-28T06:15:50;-1.80;99.90
2577;DHT22;1298;51.252;6.802;2023-02-28T06:18:36;-1.70;99.90
2577;DHT22;1298;51.252;6.802;2023-02-28T06:21:21;-1.80;99.90
2577;DHT22;1298;51.252;6.802;2023-02-28T06:24:06;-1.70;99.90
2577;DHT22;1298;51.252;6.802;2023-02-28T06:26:52;-1.70;99.90
2577;DHT22;1298;51.252;6.802;2023-02-28T06:29:38;-1.70;99.90
2577;DHT22;1298;51.252;6.802;2023-02-28T06:32:24;-1.60;99.90
2577;DHT22;1298;51.252;6.802;2023-02-28T06:35:09;-1.60;99.90
2577;DHT22;1298;51.252;6.802;2023-02-28T06:37:54;-1.50;99.90
2577;DHT22;1298;51.252;6.802;2023-02-28T06:40:40;-1.40;99.90
2577;DHT22;1298;51.252;6.802;2023-02-28T06:43:25;-1.40;99.90
2577;DHT22;1298;51.252;6.802;2023-02-28T06:46:13;-1.30;99.90
2577;DHT22;1298;51.252;6.802;2023-02-28T06:48:59;-1.40;99.90
2577;DHT22;1298;51.252;6.802;2023-02-28T06:51:44;-1.30;99.90
2577;DHT22;1298;51.252;6.802;2023-02-28T06:54:30;-1.30;99.90
2577;DHT22;1298;51.252;6.802;2023-02-28T06:57:15;-1.30;99.90
2577;DHT22;1298;51.252;6.802;2023-02-28T07:00:02;-1.20;99.90
2577;DHT22;1298;51.252;6.802;2023-02-28T07:02:51;-1.10;99.90
2577;DHT22;1298;51.252;6.802;2023-02-28T07:05:38;-1.00;99.90
2577;DHT22;1298;51.252;6.802;2023-02-28T07:08:23;-1.00;99.90
2577;DHT22;1298;51.252;6.802;2023-02-28T07:11:09;-0.90;99.90
2577;DHT22;1298;51.252;6.802;2023-02-28T07:13:54;-0.80;99.90
2577;DHT22;1298;51.252;6.802;2023-02-28T07:16:40;-0.70;99.90
2577;DHT22;1298;51.252;6.802;2023-02-28T07:19:26;-0.60;99.90
2577;DHT22;1298;51.252;6.802;2023-02-28T07:22:11;-0.50;99.90
2577;DHT22;1298;51.252;6.802;2023-02-28T07:24:57;-0.40;99.90
2577;DHT22;1298;51.252;6.802;2023-02-28T07:27:42;-0.30;99.90
2577;DHT22;1298;51.252;6.802;2023-02-28T07:30:27;-0.20;99.90
2577;DHT22;1298;51.252;6.802;2023-02-28T07:33:12;-0.20;99.90
2577;DHT22;1298;51.252;6.802;2023-02-28T07:36:01;-0.10;99.90
2577;DHT22;1298;51.252;6.802;2023-02-28T07:38:47;0.10;99.90
2577;DHT22;1298;51.252;6.802;2023-02-28T07:41:33;0.20;99.90
2577;DHT22;1298;51.252;6.802;2023-02-28T07:44:21;0.30;99.90
2577;DHT22;1298;51.252;6.802;2023-02-28T07:47:06;0.40;99.90
2577;DHT22;1298;51.252;6.802;2023-02-28T07:49:52;0.50;99.90
2577;DHT22;1298;51.252;6.802;2023-02-28T07:52:39;0.60;99.90
2577;DHT22;1298;51.252;6.802;2023-02-28T07:55:24;0.60;99.90
2577;DHT22;1298;51.252;6.802;2023-02-28T07:58:10;0.70;99.90
2577;DHT22;1298;51.252;6.802;2023-02-28T08:00:55;0.80;99.90
2577;DHT22;1298;51.252;6.802;2023-02-28T08:03:41;0.90;99.90
2577;DHT22;1298;51.252;6.802;2023-02-28T08:06:26;1.00;99.90
2577;DHT22;1298;51.252;6.802;2023-02-28T08:09:12;1.10;99.90
2577;DHT22;1298;51.252;6.802;2023-02-28T08:11:58;1.10;99.90
2577;DHT22;1298;51.252;6.802;2023-02-28T08:14:43;1.20;99.90
2577;DHT22;1298;51.252;6.802;2023-02-28T08:17:28;1.30;99.90
2577;DHT22;1298;51.252;6.802;2023-02-28T08:20:13;1.40;99.90
2577;DHT22;1298;51.252;6.802;2023-02-28T08:22:58;1.40;99.90
2577;DHT22;1298;51.252;6.802;2023-02-28T08:25:45;1.50;99.90
2577;DHT22;1298;51.252;6.802;2023-02-28T08:28:37;1.60;99.90
2577;DHT22;1298;51.252;6.802;2023-02-28T08:31:22;1.70;99.90
2577;DHT22;1298;51.252;6.802;2023-02-28T08:34:07;1.70;99.90
2577;DHT22;1298;51.252;6.802;2023-02-28T08:36:54;1.80;99.90
2577;DHT22;1298;51.252;6.802;2023-02-28T08:39:39;1.90;99.90
2577;DHT22;1298;51.252;6.802;2023-02-28T08:42:26;2.00;99.90
2577;DHT22;1298;51.252;6.802;2023-02-28T08:45:11;2.00;99.90
2577;DHT22;1298;51.252;6.802;2023-02-28T08:47:56;2.10;99.90
2577;DHT22;1298;51.252;6.802;2023-02-28T08:50:41;2.20;99.90
2577;DHT22;1298;51.252;6.802;2023-02-28T08:53:26;2.30;99.90
2577;DHT22;1298;51.252;6.802;2023-02-28T08:56:12;2.30;99.90
2577;DHT22;1298;51.252;6.802;2023-02-28T08:58:59;2.40;99.90
2577;DHT22;1298;51.252;6.802;2023-02-28T09:01:44;2.50;99.90
2577;DHT22;1298;51.252;6.802;2023-02-28T09:04:29;2.60;99.90
2577;DHT22;1298;51.252;6.802;2023-02-28T09:07:15;2.70;99.90
2577;DHT22;1298;51.252;6.802;2023-02-28T09:10:00;2.70;99.90
2577;DHT22;1298;51.252;6.802;2023-02-28T09:12:45;2.80;99.90
2577;DHT22;1298;51.252;6.802;2023-02-28T09:15:32;2.90;99.90
2577;DHT22;1298;51.252;6.802;2023-02-28T09:18:18;2.90;99.90
2577;DHT22;1298;51.252;6.802;2023-02-28T09:21:04;3.00;99.90
2577;DHT22;1298;51.252;6.802;2023-02-28T09:23:50;3.00;99.90
2577;DHT22;1298;51.252;6.802;2023-02-28T09:26:35;3.10;99.90
2577;DHT22;1298;51.252;6.802;2023-02-28T09:29:22;3.10;99.90
2577;DHT22;1298;51.252;6.802;2023-02-28T09:32:09;3.10;99.90
2577;DHT22;1298;51.252;6.802;2023-02-28T09:34:55;3.20;99.90
2577;DHT22;1298;51.252;6.802;2023-02-28T09:37:41;3.20;99.90
2577;DHT22;1298;51.252;6.802;2023-02-28T09:40:26;3.40;99.90
2577;DHT22;1298;51.252;6.802;2023-02-28T09:43:12;3.50;99.90
2577;DHT22;1298;51.252;6.802;2023-02-28T09:46:00;3.50;99.90
2577;DHT22;1298;51.252;6.802;2023-02-28T09:48:49;3.60;99.90
2577;DHT22;1298;51.252;6.802;2023-02-28T09:51:40;3.60;99.90
2577;DHT22;1298;51.252;6.802;2023-02-28T09:54:30;3.60;99.90
2577;DHT22;1298;51.252;6.802;2023-02-28T09:57:18;3.60;99.90
2577;DHT22;1298;51.252;6.802;2023-02-28T10:00:06;3.60;99.90
2577;DHT22;1298;51.252;6.802;2023-02-28T10:03:03;3.60;99.90
2577;DHT22;1298;51.252;6.802;2023-02-28T10:05:52;3.70;99.90
2577;DHT22;1298;51.252;6.802;2023-02-28T10:08:40;3.70;99.90
2577;DHT22;1298;51.252;6.802;2023-02-28T10:11:29;3.60;99.90
2577;DHT22;1298;51.252;6.802;2023-02-28T10:14:18;3.70;99.90
2577;DHT22;1298;51.252;6.802;2023-02-28T10:17:06;3.80;99.90
2577;DHT22;1298;51.252;6.802;2023-02-28T10:19:58;3.90;99.90
2577;DHT22;1298;51.252;6.802;2023-02-28T10:22:53;4.00;99.90
2577;DHT22;1298;51.252;6.802;2023-02-28T10:25:44;4.00;99.90
2577;DHT22;1298;51.252;6.802;2023-02-28T10:28:32;4.00;99.90
2577;DHT22;1298;51.252;6.802;2023-02-28T10:31:18;4.10;99.90
2577;DHT22;1298;51.252;6.802;2023-02-28T10:34:03;4.10;99.90
2577;DHT22;1298;51.252;6.802;2023-02-28T10:36:50;4.20;99.90
2577;DHT22;1298;51.252;6.802;2023-02-28T10:39:46;4.20;99.90
2577;DHT22;1298;51.252;6.802;2023-02-28T10:42:32;4.30;99.90
2577;DHT22;1298;51.252;6.802;2023-02-28T10:45:18;4.40;99.90
2577;DHT22;1298;51.252;6.802;2023-02-28T10:48:04;4.50;99.90
2577;DHT22;1298;51.252;6.802;2023-02-28T10:50:52;4.50;99.90
2577;DHT22;1298;51.252;6.802;2023-02-28T10:53:48;4.50;99.90
2577;DHT22;1298;51.252;6.802;2023-02-28T10:56:35;4.40;99.90
2577;DHT22;1298;51.252;6.802;2023-02-28T10:59:28;4.30;99.90
2577;DHT22;1298;51.252;6.802;2023-02-28T11:02:28;4.20;99.90
2577;DHT22;1298;51.252;6.802;2023-02-28T11:05:28;4.00;99.90
2577;DHT22;1298;51.252;6.802;2023-02-28T11:08:15;4.00;99.90
2577;DHT22;1298;51.252;6.802;2023-02-28T11:11:03;4.30;99.90
2577;DHT22;1298;51.252;6.802;2023-02-28T11:13:51;4.50;99.90
2577;DHT22;1298;51.252;6.802;2023-02-28T11:16:37;4.60;99.90
2577;DHT22;1298;51.252;6.802;2023-02-28T11:19:23;4.70;99.90
2577;DHT22;1298;51.252;6.802;2023-02-28T11:22:10;4.70;99.90
2577;DHT22;1298;51.252;6.802;2023-02-28T11:24:56;4.80;99.90
2577;DHT22;1298;51.252;6.802;2023-02-28T11:27:44;4.70;99.90
2577;DHT22;1298;51.252;6.802;2023-02-28T11:30:33;4.80;99.90
2577;DHT22;1298;51.252;6.802;2023-02-28T11:33:23;4.80;99.90
2577;DHT22;1298;51.252;6.802;2023-02-28T11:36:10;4.70;99.90
2577;DHT22;1298;51.252;6.802;2023-02-28T11:38:58;4.70;99.90
2577;DHT22;1298;51.252;6.802;2023-02-28T11:41:51;4.70;99.90
2577;DHT22;1298;51.252;6.802;2023-02-28T11:44:43;4.80;99.90
2577;DHT22;1298;51.252;6.802;2023-02-28T11:47:34;4.70;99.90
2577;DHT22;1298;51.252;6.802;2023-02-28T11:50:26;4.70;99.90
2577;DHT22;1298;51.252;6.802;2023-02-28T11:53:14;4.80;99.90
2577;DHT22;1298;51.252;6.802;2023-02-28T11:56:02;5.00;99.90
2577;DHT22;1298;51.252;6.802;2023-02-28T11:58:53;5.00;99.90
2577;DHT22;1298;51.252;6.802;2023-02-28T12:01:47;5.10;99.90
2577;DHT22;1298;51.252;6.802;2023-02-28T12:04:40;5.20;99.90
2577;DHT22;1298;51.252;6.802;2023-02-28T12:07:30;5.30;99.90
2577;DHT22;1298;51.252;6.802;2023-02-28T12:10:20;5.30;99.90
2577;DHT22;1298;51.252;6.802;2023-02-28T12:13:08;5.20;99.90
2577;DHT22;1298;51.252;6.802;2023-02-28T12:19:13;4.80;99.90
2577;DHT22;1298;51.252;6.802;2023-02-28T12:28:17;5.00;99.90
2577;DHT22;1298;51.252;6.802;2023-02-28T12:31:08;5.00;99.90
2577;DHT22;1298;51.252;6.802;2023-02-28T12:33:55;5.00;99.90
2577;DHT22;1298;51.252;6.802;2023-02-28T12:36:44;5.20;99.90
2577;DHT22;1298;51.252;6.802;2023-02-28T12:39:31;5.20;99.90
2577;DHT22;1298;51.252;6.802;2023-02-28T12:42:19;5.20;99.90
2577;DHT22;1298;51.252;6.802;2023-02-28T12:45:10;5.20;99.90
2577;DHT22;1298;51.252;6.802;2023-02-28T12:47:57;5.30;99.90
2577;DHT22;1298;51.252;6.802;2023-02-28T12:50:42;5.40;99.90
2577;DHT22;1298;51.252;6.802;2023-02-28T12:53:30;5.50;99.90
2577;DHT22;1298;51.252;6.802;2023-02-28T12:56:17;5.60;99.90
2577;DHT22;1298;51.252;6.802;2023-02-28T12:59:07;5.50;99.90
2577;DHT22;1298;51.252;6.802;2023-02-28T13:02:09;5.50;99.90
2577;DHT22;1298;51.252;6.802;2023-02-28T13:05:16;5.70;99.90
2577;DHT22;1298;51.252;6.802;2023-02-28T13:08:11;5.90;99.90
2577;DHT22;1298;51.252;6.802;2023-02-28T13:11:05;6.30;99.90
2577;DHT22;1298;51.252;6.802;2023-02-28T13:13:56;7.00;99.90
2577;DHT22;1298;51.252;6.802;2023-02-28T13:19:44;8.20;99.90
2577;DHT22;1298;51.252;6.802;2023-02-28T13:22:39;9.40;99.90
2577;DHT22;1298;51.252;6.802;2023-02-28T13:38:21;11.60;99.90
2577;DHT22;1298;51.252;6.802;2023-02-28T13:44:13;11.40;99.90
2577;DHT22;1298;51.252;6.802;2023-02-28T13:47:19;11.10;99.90
2577;DHT22;1298;51.252;6.802;2023-02-28T13:50:15;11.10;99.90
2577;DHT22;1298;51.252;6.802;2023-02-28T13:56:25;11.90;99.90
2577;DHT22;1298;51.252;6.802;2023-02-28T13:59:18;12.30;99.90
2577;DHT22;1298;51.252;6.802;2023-02-28T14:02:14;12.80;99.90
2577;DHT22;1298;51.252;6.802;2023-02-28T14:05:05;13.50;99.90
2577;DHT22;1298;51.252;6.802;2023-02-28T14:07:52;13.20;99.90
2577;DHT22;1298;51.252;6.802;2023-02-28T14:10:42;13.30;99.90
2577;DHT22;1298;51.252;6.802;2023-02-28T14:13:38;13.20;99.90
2577;DHT22;1298;51.252;6.802;2023-02-28T14:16:34;13.80;99.90
2577;DHT22;1298;51.252;6.802;2023-02-28T14:19:24;13.60;99.90
2577;DHT22;1298;51.252;6.802;2023-02-28T14:22:13;13.60;99.90
2577;DHT22;1298;51.252;6.802;2023-02-28T14:25:08;13.20;99.90
2577;DHT22;1298;51.252;6.802;2023-02-28T14:27:58;12.80;99.90
2577;DHT22;1298;51.252;6.802;2023-02-28T14:30:53;12.30;99.90
2577;DHT22;1298;51.252;6.802;2023-02-28T14:33:44;12.70;99.90
2577;DHT22;1298;51.252;6.802;2023-02-28T14:36:32;12.40;99.90
2577;DHT22;1298;51.252;6.802;2023-02-28T14:39:19;12.40;99.90
2577;DHT22;1298;51.252;6.802;2023-02-28T14:45:16;13.00;99.90
2577;DHT22;1298;51.252;6.802;2023-02-28T14:48:05;13.60;99.90
2577;DHT22;1298;51.252;6.802;2023-02-28T14:50:56;14.20;99.90
2577;DHT22;1298;51.252;6.802;2023-02-28T14:53:42;13.80;99.90
2577;DHT22;1298;51.252;6.802;2023-02-28T14:56:30;13.40;99.90
2577;DHT22;1298;51.252;6.802;2023-02-28T14:59:23;13.50;99.90
2577;DHT22;1298;51.252;6.802;2023-02-28T15:02:16;14.60;99.90
2577;DHT22;1298;51.252;6.802;2023-02-28T15:05:10;15.00;99.90
2577;DHT22;1298;51.252;6.802;2023-02-28T15:08:02;14.70;99.90
2577;DHT22;1298;51.252;6.802;2023-02-28T15:10:53;13.80;99.90
2577;DHT22;1298;51.252;6.802;2023-02-28T15:13:40;13.80;99.90
2577;DHT22;1298;51.252;6.802;2023-02-28T15:16:28;13.60;99.90
2577;DHT22;1298;51.252;6.802;2023-02-28T15:19:17;13.60;99.90
2577;DHT22;1298;51.252;6.802;2023-02-28T15:22:07;13.40;99.90
2577;DHT22;1298;51.252;6.802;2023-02-28T15:24:56;13.00;99.90
2577;DHT22;1298;51.252;6.802;2023-02-28T15:27:44;13.10;99.90
2577;DHT22;1298;51.252;6.802;2023-02-28T15:30:31;12.70;99.90
2577;DHT22;1298;51.252;6.802;2023-02-28T15:33:20;12.50;99.90
2577;DHT22;1298;51.252;6.802;2023-02-28T15:36:09;12.60;99.90
2577;DHT22;1298;51.252;6.802;2023-02-28T15:38:58;12.60;99.90
2577;DHT22;1298;51.252;6.802;2023-02-28T15:41:43;12.30;99.90
2577;DHT22;1298;51.252;6.802;2023-02-28T15:44:30;12.30;99.90
2577;DHT22;1298;51.252;6.802;2023-02-28T15:47:19;12.30;99.90
2577;DHT22;1298;51.252;6.802;2023-02-28T15:50:08;11.50;99.90
2577;DHT22;1298;51.252;6.802;2023-02-28T15:52:55;11.20;99.90
2577;DHT22;1298;51.252;6.802;2023-02-28T15:55:42;10.60;99.90
2577;DHT22;1298;51.252;6.802;2023-02-28T15:58:27;10.70;99.90
2577;DHT22;1298;51.252;6.802;2023-02-28T16:01:17;11.00;99.90
2577;DHT22;1298;51.252;6.802;2023-02-28T16:04:05;10.50;99.90
2577;DHT22;1298;51.252;6.802;2023-02-28T16:07:00;10.20;99.90
2577;DHT22;1298;51.252;6.802;2023-02-28T16:09:45;9.90;99.90
2577;DHT22;1298;51.252;6.802;2023-02-28T16:12:34;9.80;99.90
2577;DHT22;1298;51.252;6.802;2023-02-28T16:15:20;9.40;99.90
2577;DHT22;1298;51.252;6.802;2023-02-28T16:18:07;8.50;99.90
2577;DHT22;1298;51.252;6.802;2023-02-28T16:20:52;7.80;99.90
2577;DHT22;1298;51.252;6.802;2023-02-28T16:23:38;7.10;99.90
2577;DHT22;1298;51.252;6.802;2023-02-28T16:29:16;6.30;99.90
2577;DHT22;1298;51.252;6.802;2023-02-28T16:32:04;6.00;99.90
2577;DHT22;1298;51.252;6.802;2023-02-28T16:38:48;5.70;99.90
2577;DHT22;1298;51.252;6.802;2023-02-28T16:41:37;5.60;99.90
2577;DHT22;1298;51.252;6.802;2023-02-28T16:44:28;5.50;99.90
2577;DHT22;1298;51.252;6.802;2023-02-28T16:47:14;5.40;99.90
2577;DHT22;1298;51.252;6.802;2023-02-28T16:50:00;5.30;99.90
2577;DHT22;1298;51.252;6.802;2023-02-28T16:52:45;5.10;99.90
2577;DHT22;1298;51.252;6.802;2023-02-28T16:55:31;5.10;99.90
2577;DHT22;1298;51.252;6.802;2023-02-28T16:58:17;5.00;99.90
2577;DHT22;1298;51.252;6.802;2023-02-28T17:01:05;4.90;99.90
2577;DHT22;1298;51.252;6.802;2023-02-28T17:03:51;4.90;99.90
2577;DHT22;1298;51.252;6.802;2023-02-28T17:06:37;4.80;99.90
2577;DHT22;1298;51.252;6.802;2023-02-28T17:09:22;4.70;99.90
2577;DHT22;1298;51.252;6.802;2023-02-28T17:12:10;4.70;99.90
2577;DHT22;1298;51.252;6.802;2023-02-28T17:14:56;4.60;99.90
2577;DHT22;1298;51.252;6.802;2023-02-28T17:17:41;4.50;99.90
2577;DHT22;1298;51.252;6.802;2023-02-28T17:20:27;4.50;99.90
2577;DHT22;1298;51.252;6.802;2023-02-28T17:23:13;4.40;99.90
2577;DHT22;1298;51.252;6.802;2023-02-28T17:25:59;4.30;99.90
2577;DHT22;1298;51.252;6.802;2023-02-28T17:28:45;4.30;99.90
2577;DHT22;1298;51.252;6.802;2023-02-28T17:31:31;4.30;99.90
2577;DHT22;1298;51.252;6.802;2023-02-28T17:34:17;4.30;99.90
2577;DHT22;1298;51.252;6.802;2023-02-28T17:37:03;4.20;99.90
2577;DHT22;1298;51.252;6.802;2023-02-28T17:39:48;4.20;99.90
2577;DHT22;1298;51.252;6.802;2023-02-28T17:42:33;4.10;99.90
2577;DHT22;1298;51.252;6.802;2023-02-28T17:45:20;4.00;99.90
2577;DHT22;1298;51.252;6.802;2023-02-28T17:48:05;3.90;99.90
2577;DHT22;1298;51.252;6.802;2023-02-28T17:50:51;3.80;99.90
2577;DHT22;1298;51.252;6.802;2023-02-28T17:53:37;3.80;99.90
2577;DHT22;1298;51.252;6.802;2023-02-28T17:56:24;3.70;99.90
2577;DHT22;1298;51.252;6.802;2023-02-28T17:59:10;3.70;99.90
2577;DHT22;1298;51.252;6.802;2023-02-28T18:01:57;3.70;99.90
2577;DHT22;1298;51.252;6.802;2023-02-28T18:04:42;3.60;99.90
2577;DHT22;1298;51.252;6.802;2023-02-28T18:07:27;3.60;99.90
2577;DHT22;1298;51.252;6.802;2023-02-28T18:10:14;3.60;99.90
2577;DHT22;1298;51.252;6.802;2023-02-28T18:13:03;3.60;99.90
2577;DHT22;1298;51.252;6.802;2023-02-28T18:15:48;3.50;99.90
2577;DHT22;1298;51.252;6.802;2023-02-28T18:18:35;3.50;99.90
2577;DHT22;1298;51.252;6.802;2023-02-28T18:21:21;3.50;99.90
2577;DHT22;1298;51.252;6.802;2023-02-28T18:24:06;3.40;99.90
2577;DHT22;1298;51.252;6.802;2023-02-28T18:26:52;3.30;99.90
2577;DHT22;1298;51.252;6.802;2023-02-28T18:29:37;3.30;99.90
2577;DHT22;1298;51.252;6.802;2023-02-28T18:32:22;3.30;99.90
2577;DHT22;1298;51.252;6.802;2023-02-28T18:35:09;3.30;99.90
2577;DHT22;1298;51.252;6.802;2023-02-28T18:37:54;3.20;99.90
2577;DHT22;1298;51.252;6.802;2023-02-28T18:40:40;3.10;99.90
2577;DHT22;1298;51.252;6.802;2023-02-28T18:43:26;3.20;99.90
2577;DHT22;1298;51.252;6.802;2023-02-28T18:46:13;3.10;99.90
2577;DHT22;1298;51.252;6.802;2023-02-28T18:48:59;3.00;99.90
2577;DHT22;1298;51.252;6.802;2023-02-28T18:51:46;2.90;99.90
2577;DHT22;1298;51.252;6.802;2023-02-28T18:54:31;2.90;99.90
2577;DHT22;1298;51.252;6.802;2023-02-28T18:57:16;2.90;99.90
2577;DHT22;1298;51.252;6.802;2023-02-28T19:00:01;2.80;99.90
2577;DHT22;1298;51.252;6.802;2023-02-28T19:02:47;2.80;99.90
2577;DHT22;1298;51.252;6.802;2023-02-28T19:05:34;2.80;99.90
2577;DHT22;1298;51.252;6.802;2023-02-28T19:08:24;2.70;99.90